createdAt,value
2019-03-04T00:02:18.295Z,6.60
2019-03-04T00:04:47.181Z,5.73
2019-03-04T00:07:16.098Z,5.30
2019-03-04T00:09:44.952Z,4.73
2019-03-04T00:12:13.811Z,6.20
2019-03-04T00:14:42.639Z,2.97
2019-03-04T00:17:11.538Z,4.83
2019-03-04T00:19:40.388Z,3.37
2019-03-04T00:22:09.299Z,4.00
2019-03-04T00:24:38.206Z,6.43
2019-03-04T00:27:07.087Z,4.07
2019-03-04T00:29:35.954Z,4.30
2019-03-04T00:32:05.022Z,5.00
2019-03-04T00:34:33.933Z,4.80
2019-03-04T00:37:02.775Z,5.03
2019-03-04T00:39:31.635Z,4.50
2019-03-04T00:42:00.603Z,2.60
2019-03-04T00:44:29.419Z,3.83
2019-03-04T00:46:58.304Z,3.33
2019-03-04T00:49:27.117Z,6.53
2019-03-04T00:51:55.960Z,3.53
2019-03-04T00:54:24.895Z,4.10
2019-03-04T00:56:53.754Z,4.73
2019-03-04T00:59:22.614Z,4.73
2019-03-04T01:01:51.526Z,5.30
2019-03-04T01:04:20.479Z,3.80
2019-03-04T01:06:49.420Z,4.40
2019-03-04T01:09:18.496Z,4.17
2019-03-04T01:11:47.331Z,4.57
2019-03-04T01:14:16.215Z,4.13
2019-03-04T01:16:45.295Z,3.73
2019-03-04T01:19:14.155Z,4.93
2019-03-04T01:21:42.975Z,5.53
2019-03-04T01:24:11.889Z,5.70
2019-03-04T01:26:40.706Z,4.60
2019-03-04T01:29:09.614Z,4.60
2019-03-04T01:31:38.548Z,3.73
2019-03-04T01:34:08.564Z,3.93
2019-03-04T01:36:37.523Z,3.93
2019-03-04T01:39:07.499Z,4.47
2019-03-04T01:41:36.346Z,3.60
2019-03-04T01:44:05.506Z,3.97
2019-03-04T01:46:34.534Z,4.73
2019-03-04T01:49:03.405Z,3.63
2019-03-04T01:51:32.287Z,3.17
2019-03-04T01:54:01.191Z,3.80
2019-03-04T01:56:30.029Z,4.97
2019-03-04T01:58:58.869Z,4.33
2019-03-04T02:01:27.727Z,4.33
2019-03-04T02:03:56.583Z,3.93
2019-03-04T02:06:25.418Z,4.50
2019-03-04T02:08:54.360Z,4.17
2019-03-04T02:11:23.279Z,3.97
2019-03-04T02:13:52.134Z,4.80
2019-03-04T02:16:21.040Z,4.37
2019-03-04T02:18:49.951Z,4.27
2019-03-04T02:21:18.831Z,4.37
2019-03-04T02:23:47.760Z,4.07
2019-03-04T02:26:23.248Z,5.83
2019-03-04T02:28:52.203Z,4.70
2019-03-04T02:31:21.097Z,4.07
2019-03-04T02:33:49.955Z,5.57
2019-03-04T02:36:18.940Z,5.83
2019-03-04T02:38:47.819Z,4.40
2019-03-04T02:41:16.670Z,3.60
2019-03-04T02:43:45.568Z,5.13
2019-03-04T02:46:14.384Z,4.87
2019-03-04T02:48:43.400Z,5.00
2019-03-04T02:51:12.395Z,3.37
2019-03-04T02:53:41.233Z,3.97
2019-03-04T02:56:10.159Z,4.80
2019-03-04T02:58:39.101Z,3.13
2019-03-04T03:01:08.183Z,4.93
2019-03-04T03:03:37.211Z,4.93
2019-03-04T03:06:06.187Z,4.70
2019-03-04T03:08:35.164Z,4.33
2019-03-04T03:11:04.011Z,3.70
2019-03-04T03:13:33.068Z,6.00
2019-03-04T03:16:02.071Z,4.50
2019-03-04T03:18:30.996Z,4.03
2019-03-04T03:20:59.936Z,3.73
2019-03-04T03:23:28.786Z,5.60
2019-03-04T03:25:57.653Z,4.13
2019-03-04T03:28:26.564Z,2.83
2019-03-04T03:30:55.523Z,4.10
2019-03-04T03:33:24.444Z,4.30
2019-03-04T03:35:53.407Z,3.70
2019-03-04T03:38:22.246Z,3.57
2019-03-04T03:40:51.107Z,4.57
2019-03-04T03:43:20.011Z,4.40
2019-03-04T03:45:49.025Z,3.33
2019-03-04T03:48:17.956Z,4.33
2019-03-04T03:50:47.247Z,3.33
2019-03-04T03:53:16.114Z,4.80
2019-03-04T03:55:44.996Z,3.90
2019-03-04T03:58:14.075Z,3.23
2019-03-04T04:00:43.262Z,4.13
2019-03-04T04:03:12.255Z,3.77
2019-03-04T04:05:41.193Z,4.83
2019-03-04T04:08:10.139Z,2.60
2019-03-04T04:10:38.963Z,2.17
2019-03-04T04:13:07.970Z,5.43
2019-03-04T04:15:37.106Z,3.03
2019-03-04T04:18:06.103Z,3.07
2019-03-04T04:20:35.135Z,2.30
2019-03-04T04:23:04.161Z,3.40
2019-03-04T04:25:33.046Z,3.23
2019-03-04T04:28:03.454Z,3.50
2019-03-04T04:30:32.757Z,6.23
2019-03-04T04:33:01.634Z,3.43
2019-03-04T04:35:30.487Z,1.97
2019-03-04T04:37:59.372Z,3.23
2019-03-04T04:40:28.268Z,2.33
2019-03-04T04:42:57.135Z,3.87
2019-03-04T04:45:25.988Z,3.93
2019-03-04T04:47:54.867Z,3.00
2019-03-04T04:50:23.797Z,3.23
2019-03-04T04:52:52.774Z,3.07
2019-03-04T04:55:21.735Z,2.47
2019-03-04T04:57:50.714Z,4.23
2019-03-04T05:00:19.771Z,3.73
2019-03-04T05:02:48.760Z,3.53
2019-03-04T05:05:17.803Z,3.83
2019-03-04T05:07:46.895Z,2.83
2019-03-04T05:10:17.074Z,3.00
2019-03-04T05:12:46.207Z,2.10
2019-03-04T05:15:15.493Z,2.13
2019-03-04T05:17:44.573Z,1.63
2019-03-04T05:20:18.534Z,2.37
2019-03-04T05:22:47.452Z,2.07
2019-03-04T05:25:16.509Z,2.17
2019-03-04T05:27:45.441Z,1.87
2019-03-04T05:30:18.641Z,3.00
2019-03-04T05:32:47.545Z,2.50
2019-03-04T05:35:16.643Z,2.67
2019-03-04T05:37:45.614Z,2.67
2019-03-04T05:40:15.793Z,2.27
2019-03-04T05:42:44.775Z,3.77
2019-03-04T05:45:15.156Z,2.07
2019-03-04T05:47:44.349Z,3.13
2019-03-04T05:50:14.791Z,3.20
2019-03-04T05:52:44.045Z,2.40
2019-03-04T05:55:14.226Z,2.30
2019-03-04T05:57:43.632Z,2.43
2019-03-04T06:00:15.410Z,2.03
2019-03-04T06:02:44.681Z,1.60
2019-03-04T06:05:14.270Z,1.60
2019-03-04T06:07:46.616Z,2.60
2019-03-04T06:10:15.796Z,1.77
2019-03-04T06:12:44.753Z,1.57
2019-03-04T06:15:15.552Z,2.10
2019-03-04T06:17:44.412Z,2.50
2019-03-04T06:20:14.521Z,2.07
2019-03-04T06:22:43.463Z,2.47
2019-03-04T06:25:14.543Z,2.03
2019-03-04T06:27:43.439Z,3.73
2019-03-04T06:30:15.163Z,1.87
2019-03-04T06:32:44.180Z,1.70
2019-03-04T06:35:13.403Z,1.57
2019-03-04T06:37:42.422Z,1.93
2019-03-04T06:40:12.307Z,1.40
2019-03-04T06:42:41.431Z,1.33
2019-03-04T06:45:12.359Z,2.23
2019-03-04T06:47:41.428Z,2.53
2019-03-04T06:50:44.806Z,1.80
2019-03-04T06:53:13.896Z,2.73
2019-03-04T06:56:30.023Z,1.30
2019-03-04T06:59:15.696Z,2.33
2019-03-04T07:01:48.477Z,1.80
2019-03-04T07:04:21.887Z,1.40
2019-03-04T07:06:50.818Z,1.27
2019-03-04T07:09:20.436Z,1.77
2019-03-04T07:11:53.111Z,1.10
2019-03-04T07:14:22.029Z,2.97
2019-03-04T07:16:51.753Z,2.73
2019-03-04T07:19:21.797Z,1.60
2019-03-04T07:21:51.144Z,1.70
2019-03-04T07:24:20.080Z,1.43
2019-03-04T07:26:49.163Z,1.40
2019-03-04T07:29:18.164Z,1.63
2019-03-04T07:31:47.065Z,2.70
2019-03-04T07:34:16.090Z,2.97
2019-03-04T07:36:45.101Z,1.83
2019-03-04T07:39:18.588Z,1.73
2019-03-04T07:41:49.206Z,3.63
2019-03-04T07:44:18.078Z,9.47
2019-03-04T07:46:46.896Z,4.53
2019-03-04T07:49:15.704Z,3.83
2019-03-04T07:51:44.690Z,2.77
2019-03-04T07:54:14.423Z,1.93
2019-03-04T07:56:43.307Z,1.53
2019-03-04T07:59:12.211Z,2.57
2019-03-04T08:01:41.184Z,2.00
2019-03-04T08:04:10.173Z,1.30
2019-03-04T08:06:38.971Z,3.00
2019-03-04T08:09:55.347Z,1.33
2019-03-04T08:12:44.858Z,0.87
2019-03-04T08:15:13.768Z,2.30
2019-03-04T08:17:42.679Z,0.87
2019-03-04T08:20:12.180Z,1.03
2019-03-04T08:22:41.164Z,1.07
2019-03-04T08:25:13.080Z,1.23
2019-03-04T08:27:42.104Z,1.07
2019-03-04T08:30:14.703Z,1.23
2019-03-04T08:32:43.599Z,2.00
2019-03-04T08:35:12.599Z,1.13
2019-03-04T08:37:41.520Z,1.33
2019-03-04T08:40:11.441Z,1.77
2019-03-04T08:42:40.387Z,0.87
2019-03-04T08:45:11.788Z,1.80
2019-03-04T08:47:41.243Z,1.30
2019-03-04T08:50:13.266Z,3.70
2019-03-04T08:52:42.364Z,1.97
2019-03-04T08:55:12.476Z,3.47
2019-03-04T08:57:41.459Z,3.00
2019-03-04T09:00:16.556Z,2.50
2019-03-04T09:02:45.684Z,3.77
2019-03-04T09:05:14.691Z,4.57
2019-03-04T09:07:44.570Z,2.10
2019-03-04T09:10:26.034Z,0.97
2019-03-04T09:12:55.444Z,2.07
2019-03-04T09:15:26.895Z,2.77
2019-03-04T09:18:03.065Z,2.33
2019-03-04T09:20:32.164Z,6.13
2019-03-04T09:23:01.479Z,2.60
2019-03-04T09:25:53.968Z,2.33
2019-03-04T09:28:23.254Z,4.30
2019-03-04T09:30:53.889Z,3.73
2019-03-04T09:33:23.387Z,3.63
2019-03-04T09:35:56.377Z,3.57
2019-03-04T09:38:26.436Z,1.90
2019-03-04T09:40:56.085Z,3.60
2019-03-04T09:43:25.539Z,2.47
2019-03-04T09:45:55.967Z,6.43
2019-03-04T09:48:26.537Z,4.07
2019-03-04T09:50:55.759Z,4.23
2019-03-04T09:53:25.005Z,2.50
2019-03-04T09:55:57.029Z,2.57
2019-03-04T09:58:26.208Z,2.20
2019-03-04T10:01:07.188Z,2.93
2019-03-04T10:04:07.589Z,3.23
2019-03-04T10:06:58.451Z,4.57
2019-03-04T10:09:41.030Z,2.43
2019-03-04T10:12:18.809Z,4.07
2019-03-04T10:15:17.081Z,3.77
2019-03-04T10:17:53.247Z,4.23
2019-03-04T10:20:44.751Z,6.23
2019-03-04T10:23:38.293Z,5.60
2019-03-04T10:26:54.808Z,3.43
2019-03-04T10:29:53.908Z,3.87
2019-03-04T10:33:15.857Z,3.80
2019-03-04T10:36:30.846Z,5.03
2019-03-04T10:39:55.741Z,3.93
2019-03-04T10:42:51.957Z,6.57
2019-03-04T10:46:04.362Z,3.73
2019-03-04T10:48:33.614Z,4.40
2019-03-04T10:51:02.823Z,4.63
2019-03-04T10:53:32.016Z,4.03
2019-03-04T10:56:01.301Z,3.77
2019-03-04T10:58:30.612Z,5.03
2019-03-04T11:00:59.961Z,4.20
2019-03-04T11:03:29.221Z,3.07
2019-03-04T11:05:58.522Z,3.77
2019-03-04T11:08:27.847Z,3.73
2019-03-04T11:10:57.095Z,2.57
2019-03-04T11:13:26.363Z,3.67
2019-03-04T11:15:55.715Z,4.67
2019-03-04T11:18:24.977Z,3.37
2019-03-04T11:20:54.681Z,4.17
2019-03-04T11:23:24.849Z,4.97
2019-03-04T11:25:55.910Z,3.13
2019-03-04T11:28:25.307Z,2.23
2019-03-04T11:30:54.845Z,5.27
2019-03-04T11:33:24.112Z,3.43
2019-03-04T11:35:53.445Z,1.47
2019-03-04T11:38:49.769Z,2.60
2019-03-04T11:41:29.622Z,2.93
2019-03-04T11:43:59.390Z,2.20
2019-03-04T11:46:28.567Z,1.03
2019-03-04T11:49:01.475Z,2.50
2019-03-04T11:51:40.328Z,1.63
2019-03-04T11:54:12.748Z,3.13
2019-03-04T11:56:58.492Z,3.87
2019-03-04T11:59:25.927Z,3.60
2019-03-04T12:01:55.271Z,2.87
2019-03-04T12:04:28.990Z,2.87
2019-03-04T12:07:06.661Z,2.93
2019-03-04T12:09:38.682Z,3.30
2019-03-04T12:12:07.518Z,1.80
2019-03-04T12:14:36.758Z,1.00
2019-03-04T12:17:06.038Z,1.40
2019-03-04T12:19:35.379Z,2.13
2019-03-04T12:22:04.695Z,0.63
2019-03-04T12:24:34.113Z,2.90
2019-03-04T12:27:03.515Z,1.80
2019-03-04T12:29:32.860Z,0.67
2019-03-04T12:32:09.007Z,0.60
2019-03-04T12:34:37.895Z,0.60
2019-03-04T12:37:06.799Z,1.00
2019-03-04T12:39:35.760Z,0.67
2019-03-04T12:42:04.813Z,1.37
2019-03-04T12:44:33.678Z,2.57
2019-03-04T12:47:02.493Z,1.20
2019-03-04T12:49:31.344Z,2.43
2019-03-04T12:52:00.271Z,0.90
2019-03-04T12:54:29.187Z,1.37
2019-03-04T12:56:58.091Z,0.70
2019-03-04T12:59:26.928Z,1.37
2019-03-04T13:01:55.888Z,1.13
2019-03-04T13:04:24.975Z,0.93
2019-03-04T13:06:53.847Z,1.07
2019-03-04T13:09:22.755Z,1.03
2019-03-04T13:11:51.608Z,1.00
2019-03-04T13:14:20.593Z,1.30
2019-03-04T13:16:49.599Z,2.23
2019-03-04T13:19:18.714Z,1.37
2019-03-04T13:21:47.627Z,1.30
2019-03-04T13:24:16.500Z,1.77
2019-03-04T13:26:45.511Z,1.40
2019-03-04T13:29:14.407Z,1.77
2019-03-04T13:31:43.614Z,1.40
2019-03-04T13:34:12.675Z,1.50
2019-03-04T13:36:41.603Z,1.73
2019-03-04T13:39:11.032Z,1.40
2019-03-04T13:41:39.970Z,1.63
2019-03-04T13:44:15.798Z,1.43
2019-03-04T13:46:45.348Z,1.20
2019-03-04T13:49:14.571Z,3.13
2019-03-04T13:51:43.777Z,1.67
2019-03-04T13:54:13.159Z,4.23
2019-03-04T13:56:42.486Z,2.10
2019-03-04T13:59:11.846Z,2.00
2019-03-04T14:01:41.119Z,2.40
2019-03-04T14:04:10.323Z,3.03
2019-03-04T14:06:40.176Z,3.03
2019-03-04T14:09:10.379Z,3.17
2019-03-04T14:11:39.739Z,3.67
2019-03-04T14:14:09.274Z,3.77
2019-03-04T14:16:46.770Z,2.53
2019-03-04T14:19:13.679Z,3.13
2019-03-04T14:21:43.773Z,2.60
2019-03-04T14:24:19.880Z,2.97
2019-03-04T14:26:49.114Z,3.73
2019-03-04T14:29:21.122Z,3.37
2019-03-04T14:31:57.417Z,2.53
2019-03-04T14:34:30.814Z,3.77
2019-03-04T14:37:00.790Z,3.73
2019-03-04T14:39:30.268Z,4.07
2019-03-04T14:44:59.864Z,2.80
2019-03-04T14:47:34.039Z,3.10
2019-03-04T14:50:09.816Z,5.13
2019-03-04T14:52:37.181Z,3.70
2019-03-04T14:55:09.959Z,3.57
2019-03-04T14:57:43.888Z,2.80
2019-03-04T15:00:25.098Z,3.77
2019-03-04T15:03:00.238Z,7.20
2019-03-04T15:05:29.525Z,4.63
2019-03-04T15:07:58.808Z,4.60
2019-03-04T15:10:28.586Z,4.27
2019-03-04T15:12:58.675Z,5.30
2019-03-04T15:15:29.565Z,5.87
2019-03-04T15:17:58.975Z,5.70
2019-03-04T15:20:28.842Z,8.33
2019-03-04T15:22:58.275Z,6.10
2019-03-04T15:25:41.555Z,5.13
2019-03-04T15:28:15.328Z,3.27
2019-03-04T15:30:48.691Z,5.70
2019-03-04T15:33:19.016Z,3.97
2019-03-04T15:35:49.359Z,4.53
2019-03-04T15:38:24.929Z,7.07
2019-03-04T15:40:54.446Z,7.40
2019-03-04T15:43:23.783Z,5.03
2019-03-04T15:45:53.724Z,5.43
2019-03-04T15:48:24.418Z,4.57
2019-03-04T15:50:59.095Z,2.87
2019-03-04T15:53:33.185Z,4.93
2019-03-04T15:56:19.277Z,5.27
2019-03-04T15:58:48.734Z,4.53
2019-03-04T16:01:26.403Z,7.83
2019-03-04T16:03:56.569Z,5.33
2019-03-04T16:06:26.956Z,6.40
2019-03-04T16:09:00.934Z,5.73
2019-03-04T16:11:43.311Z,8.33
2019-03-04T16:14:24.483Z,6.43
2019-03-04T16:16:52.874Z,6.67
2019-03-04T16:19:24.330Z,5.87
2019-03-04T16:22:01.476Z,10.27
2019-03-04T16:24:32.700Z,5.20
2019-03-04T16:27:11.113Z,6.60
2019-03-04T16:29:40.288Z,5.83
2019-03-04T16:32:09.726Z,8.30
2019-03-04T16:34:39.435Z,10.87
2019-03-04T16:37:09.171Z,10.73
2019-03-04T16:39:44.855Z,5.70
2019-03-04T16:42:15.407Z,5.83
2019-03-04T16:44:44.780Z,9.40
2019-03-04T16:47:23.580Z,7.93
2019-03-04T16:49:53.507Z,6.00
2019-03-04T16:52:36.280Z,8.77
2019-03-04T16:55:05.910Z,7.47
2019-03-04T16:57:35.179Z,7.20
2019-03-04T17:00:28.139Z,5.07
2019-03-04T17:02:45.744Z,7.30
2019-03-04T17:05:28.875Z,6.43
2019-03-04T17:07:58.940Z,7.10
2019-03-04T17:10:32.485Z,6.83
2019-03-04T17:13:01.872Z,9.13
2019-03-04T17:15:35.320Z,7.17
2019-03-04T17:18:04.910Z,6.70
2019-03-04T17:20:34.767Z,6.27
2019-03-04T17:23:04.491Z,10.87
2019-03-04T17:25:35.427Z,4.67
2019-03-04T17:28:04.939Z,5.97
2019-03-04T17:30:41.742Z,6.10
2019-03-04T17:33:10.938Z,6.93
2019-03-04T17:35:49.280Z,6.50
2019-03-04T17:38:19.754Z,7.37
2019-03-04T17:40:54.135Z,4.70
2019-03-04T17:43:25.993Z,6.53
2019-03-04T17:45:57.754Z,9.23
2019-03-04T17:48:33.522Z,6.87
2019-03-04T17:51:06.182Z,6.57
2019-03-04T17:53:35.550Z,8.10
2019-03-04T17:56:09.211Z,7.10
2019-03-04T17:58:52.050Z,10.70
2019-03-04T18:01:23.616Z,5.47
2019-03-04T18:03:52.924Z,8.57
2019-03-04T18:06:22.289Z,8.13
2019-03-04T18:08:54.417Z,7.67
2019-03-04T18:11:51.357Z,8.47
2019-03-04T18:14:29.626Z,8.60
2019-03-04T18:16:59.047Z,6.47
2019-03-04T18:19:28.831Z,6.90
2019-03-04T18:22:02.938Z,4.80
2019-03-04T18:24:32.166Z,5.03
2019-03-04T18:27:14.533Z,5.00
2019-03-04T18:30:07.787Z,8.10
2019-03-04T18:33:07.234Z,6.70
2019-03-04T18:36:02.369Z,7.57
2019-03-04T18:39:07.258Z,7.77
2019-03-04T18:42:31.430Z,9.27
2019-03-04T18:45:33.340Z,9.67
2019-03-04T18:48:42.494Z,6.33
2019-03-04T18:51:14.327Z,10.60
2019-03-04T18:53:48.198Z,6.77
2019-03-04T18:56:23.042Z,6.47
2019-03-04T18:58:54.421Z,6.87
2019-03-04T19:01:24.506Z,5.70
2019-03-04T19:03:53.827Z,10.13
2019-03-04T19:06:23.368Z,10.67
2019-03-04T19:08:52.852Z,7.33
2019-03-04T19:11:24.000Z,6.70
2019-03-04T19:13:58.234Z,9.00
2019-03-04T19:16:29.052Z,5.93
2019-03-04T19:18:59.032Z,4.40
2019-03-04T19:21:35.722Z,8.87
2019-03-04T19:24:05.368Z,6.83
2019-03-04T19:26:41.854Z,9.33
2019-03-04T19:29:28.077Z,7.47
2019-03-04T19:31:53.908Z,8.43
2019-03-04T19:34:23.691Z,7.93
2019-03-04T19:36:52.971Z,6.90
2019-03-04T19:39:25.141Z,7.23
2019-03-04T19:41:54.785Z,5.07
2019-03-04T19:44:24.021Z,6.83
2019-03-04T19:47:04.600Z,6.67
2019-03-04T19:49:34.190Z,7.30
2019-03-04T19:52:09.607Z,6.70
2019-03-04T19:54:38.764Z,7.67
2019-03-04T19:57:07.709Z,7.10
2019-03-04T19:59:36.827Z,11.00
2019-03-04T20:02:05.875Z,6.90
2019-03-04T20:04:35.037Z,5.50
2019-03-04T20:07:05.199Z,8.30
2019-03-04T20:09:37.668Z,6.90
2019-03-04T20:12:08.239Z,8.10
2019-03-04T20:14:40.605Z,5.63
2019-03-04T20:17:17.056Z,5.07
2019-03-04T20:19:46.368Z,6.67
2019-03-04T20:22:21.989Z,5.87
2019-03-04T20:24:47.074Z,6.43
2019-03-04T20:27:21.824Z,7.90
2019-03-04T20:29:51.294Z,6.83
2019-03-04T20:32:23.815Z,5.70
2019-03-04T20:34:52.968Z,6.83
2019-03-04T20:37:22.796Z,3.23
2019-03-04T20:39:51.806Z,6.97
2019-03-04T20:42:20.913Z,7.57
2019-03-04T20:44:49.907Z,8.40
2019-03-04T20:47:18.759Z,8.00
2019-03-04T20:49:47.713Z,6.10
2019-03-04T20:52:16.927Z,8.27
2019-03-04T20:54:45.963Z,8.93
2019-03-04T20:57:14.858Z,6.40
2019-03-04T20:59:43.812Z,9.50
2019-03-04T21:02:16.791Z,7.30
2019-03-04T21:04:51.230Z,6.93
2019-03-04T21:07:21.301Z,6.60
2019-03-04T21:09:56.501Z,7.70
2019-03-04T21:12:29.416Z,8.23
2019-03-04T21:15:03.829Z,10.90
2019-03-04T21:17:40.997Z,5.30
2019-03-04T21:20:19.311Z,5.50
2019-03-04T21:22:52.763Z,4.77
2019-03-04T21:25:42.406Z,7.17
2019-03-04T21:28:29.275Z,6.67
2019-03-04T21:31:49.940Z,7.00
2019-03-04T21:35:10.040Z,5.17
2019-03-04T21:37:44.551Z,4.33
2019-03-04T21:40:42.942Z,7.83
2019-03-04T21:46:50.607Z,6.10
2019-03-04T21:49:19.959Z,4.77
2019-03-04T21:52:20.534Z,8.17
2019-03-04T21:55:01.379Z,4.33
2019-03-04T21:57:46.323Z,5.57
2019-03-04T22:00:39.033Z,6.33
2019-03-04T22:03:52.386Z,7.20
2019-03-04T22:06:21.734Z,6.77
2019-03-04T22:08:51.627Z,7.00
2019-03-04T22:11:20.883Z,4.27
2019-03-04T22:14:16.943Z,5.43
2019-03-04T22:16:51.579Z,3.40
2019-03-04T22:19:47.879Z,7.20
2019-03-04T22:28:24.907Z,7.27
2019-03-04T22:31:12.098Z,8.03
2019-03-04T22:33:44.908Z,6.43
2019-03-04T22:36:34.404Z,7.17
2019-03-04T22:42:10.677Z,7.17
2019-03-04T22:45:05.575Z,4.63
2019-03-04T22:47:59.003Z,7.23
2019-03-04T22:50:29.548Z,8.27
2019-03-04T22:53:14.548Z,10.67
2019-03-04T22:55:45.760Z,13.67
2019-03-04T22:58:14.845Z,8.37
2019-03-04T23:01:38.868Z,8.53
2019-03-04T23:04:22.019Z,11.77
2019-03-04T23:07:12.046Z,6.20
2019-03-04T23:10:30.987Z,5.97
2019-03-04T23:13:32.483Z,8.40
2019-03-04T23:16:02.871Z,7.30
2019-03-04T23:18:31.912Z,10.33
2019-03-04T23:21:00.860Z,5.70
2019-03-04T23:23:29.884Z,8.43
2019-03-04T23:25:58.788Z,9.80
2019-03-04T23:28:27.763Z,9.93
2019-03-04T23:30:56.838Z,8.77
2019-03-04T23:33:25.847Z,11.13
2019-03-04T23:35:57.546Z,8.07
2019-03-04T23:38:26.426Z,8.97
2019-03-04T23:40:55.390Z,7.77
2019-03-04T23:43:24.399Z,9.93
2019-03-04T23:45:53.611Z,13.37
2019-03-04T23:48:22.646Z,12.70
2019-03-04T23:50:51.947Z,13.33
2019-03-04T23:53:20.884Z,11.27
2019-03-04T23:55:49.793Z,13.07
2019-03-04T23:58:18.914Z,13.87
